Time;durP1;ratioP1;P1;durP2;ratioP2;P2;SDS_P1;SDS_P2;PMS_P1;PMS_P2;Temp;Humidity;BMP_temperature;BMP_pressure;BME280_temperature;BME280_humidity;BME280_pressure;Samples;Min_cycle;Max_cycle;Signal;HPM_P1;HPM_P2
2023/03/03 00:00:00;;;;;;;17.57;10.93;;;;;;;;;;5052395;28;20221;-93
2023/03/03 00:02:27;;;;;;;16.77;10.70;;;;;;;;;;5052000;28;20638;-93
2023/03/03 00:04:54;;;;;;;16.13;10.03;;;;;;;;;;5052385;28;20209;-92
2023/03/03 00:07:23;;;;;;;17.80;11.07;;;;;;;;;;5038021;28;20199;-92
2023/03/03 00:09:50;;;;;;;17.20;11.27;;;;;;;;;;5032248;28;20234;-93
2023/03/03 00:12:21;;;;;;;19.00;11.57;;;;;;;;;;5032316;28;20226;-92
2023/03/03 00:14:48;;;;;;;18.00;11.87;;;;;;;;;;5032353;28;20226;-93
2023/03/03 00:17:19;;;;;;;18.57;11.07;;;;;;;;;;5032573;28;20214;-92
2023/03/03 00:19:46;;;;;;;16.87;11.47;;;;;;;;;;5031887;28;20238;-92
2023/03/03 00:22:17;;;;;;;15.13;11.40;;;;;;;;;;5032524;28;20614;-92
2023/03/03 00:24:46;;;;;;;18.30;12.17;;;;;;;;;;5042399;28;20230;-92
2023/03/03 00:27:18;;;;;;;21.83;11.93;;;;;;;;;;5048754;28;20642;-92
2023/03/03 00:29:47;;;;;;;21.77;12.47;;;;;;;;;;5035623;28;20250;-92
2023/03/03 00:32:18;;;;;;;19.20;11.80;;;;;;;;;;5035710;28;20261;-93
2023/03/03 00:34:45;;;;;;;20.13;11.77;;;;;;;;;;5044865;28;20243;-93
2023/03/03 00:37:23;;;;;;;20.77;12.43;;;;;;;;;;5056061;28;20288;-92
2023/03/03 00:39:52;;;;;;;19.00;11.63;;;;;;;;;;5055309;28;20225;-93
2023/03/03 00:42:19;;;;;;;18.37;11.73;;;;;;;;;;5055813;28;20564;-93
2023/03/03 00:44:47;;;;;;;14.23;10.63;;;;;;;;;;5049175;28;20237;-93
2023/03/03 00:47:32;;;;;;;17.90;11.13;;;;;;;;;;5035929;28;20216;-93
2023/03/03 00:50:20;;;;;;;15.77;10.67;;;;;;;;;;5035783;28;20287;-93
2023/03/03 00:52:54;;;;;;;18.10;11.60;;;;;;;;;;5035811;28;20265;-93
2023/03/03 00:55:23;;;;;;;18.73;10.37;;;;;;;;;;5036787;28;20201;-93
2023/03/03 00:57:50;;;;;;;12.93;9.97;;;;;;;;;;5053224;28;20236;-93
2023/03/03 01:00:17;;;;;;;16.17;10.77;;;;;;;;;;5056309;28;20312;-93
2023/03/03 01:02:45;;;;;;;16.67;11.07;;;;;;;;;;5055458;28;20390;-93
2023/03/03 01:05:13;;;;;;;16.53;10.70;;;;;;;;;;5044381;28;20210;-93
2023/03/03 01:07:40;;;;;;;18.00;11.23;;;;;;;;;;5035826;28;20210;-93
2023/03/03 01:10:08;;;;;;;18.17;11.20;;;;;;;;;;5036282;28;20198;-93
2023/03/03 01:12:37;;;;;;;19.80;11.27;;;;;;;;;;5038263;28;20235;-93
2023/03/03 01:15:04;;;;;;;19.20;11.27;;;;;;;;;;5064597;28;20306;-93
2023/03/03 01:17:33;;;;;;;17.27;10.70;;;;;;;;;;5073458;28;20207;-92
2023/03/03 01:20:00;;;;;;;17.67;11.80;;;;;;;;;;5056322;28;20212;-93
2023/03/03 01:22:27;;;;;;;18.67;11.63;;;;;;;;;;5054667;28;20572;-93
2023/03/03 01:24:54;;;;;;;21.67;11.20;;;;;;;;;;5046737;28;20212;-92
2023/03/03 01:27:21;;;;;;;19.67;11.90;;;;;;;;;;5036049;28;20212;-92
2023/03/03 01:29:49;;;;;;;17.83;11.23;;;;;;;;;;5035363;28;20227;-93
2023/03/03 01:32:17;;;;;;;20.83;13.33;;;;;;;;;;5035685;28;20230;-94
2023/03/03 01:34:44;;;;;;;18.30;11.10;;;;;;;;;;5035073;28;20587;-93
2023/03/03 01:37:11;;;;;;;18.67;11.67;;;;;;;;;;5035494;28;20218;-93
2023/03/03 01:39:38;;;;;;;22.13;11.97;;;;;;;;;;5035344;28;20233;-93
2023/03/03 01:42:05;;;;;;;21.17;11.80;;;;;;;;;;5035477;28;20226;-93
2023/03/03 01:44:32;;;;;;;19.03;11.40;;;;;;;;;;5040700;28;20232;-93
2023/03/03 01:47:04;;;;;;;20.30;12.17;;;;;;;;;;5055439;28;20210;-93
2023/03/03 01:49:34;;;;;;;18.97;11.33;;;;;;;;;;5052967;28;20228;-93
2023/03/03 01:52:03;;;;;;;19.50;11.70;;;;;;;;;;5043201;28;20222;-93
2023/03/03 01:54:31;;;;;;;20.17;11.30;;;;;;;;;;5036278;28;20237;-93
2023/03/03 01:57:00;;;;;;;22.83;11.93;;;;;;;;;;5036795;28;20722;-93
2023/03/03 01:59:30;;;;;;;22.70;12.73;;;;;;;;;;5039438;28;20590;-93
2023/03/03 02:01:57;;;;;;;21.23;11.77;;;;;;;;;;5056483;28;20276;-94
2023/03/03 02:04:25;;;;;;;19.17;13.13;;;;;;;;;;5052724;28;20733;-93
2023/03/03 02:06:56;;;;;;;22.87;13.83;;;;;;;;;;5054979;28;20208;-93
2023/03/03 02:09:28;;;;;;;20.00;11.30;;;;;;;;;;5052334;28;20294;-93
2023/03/03 02:11:57;;;;;;;18.13;10.90;;;;;;;;;;5040365;28;20228;-93
2023/03/03 02:14:25;;;;;;;19.23;11.77;;;;;;;;;;5055442;28;20254;-93
2023/03/03 02:16:52;;;;;;;19.17;11.83;;;;;;;;;;5055368;28;20665;-94
2023/03/03 02:19:22;;;;;;;21.23;11.77;;;;;;;;;;5052326;28;20239;-93
2023/03/03 02:21:51;;;;;;;19.23;11.57;;;;;;;;;;5035411;28;20581;-93
2023/03/03 02:24:23;;;;;;;18.80;12.47;;;;;;;;;;5035992;28;20260;-93
2023/03/03 02:26:51;;;;;;;16.10;11.83;;;;;;;;;;5037404;28;20203;-93
2023/03/03 02:29:18;;;;;;;17.87;11.27;;;;;;;;;;5038006;28;20601;-93
2023/03/03 02:31:46;;;;;;;15.83;10.87;;;;;;;;;;5056901;28;20236;-93
2023/03/03 02:34:13;;;;;;;20.67;11.23;;;;;;;;;;5057410;28;20258;-93
2023/03/03 02:36:40;;;;;;;20.23;12.27;;;;;;;;;;5057479;28;20203;-93
2023/03/03 02:39:09;;;;;;;20.23;10.20;;;;;;;;;;5057157;28;20236;-93
2023/03/03 02:41:39;;;;;;;17.23;11.00;;;;;;;;;;5058011;28;20200;-93
2023/03/03 02:44:08;;;;;;;17.80;10.50;;;;;;;;;;5057199;28;20236;-93
2023/03/03 02:46:36;;;;;;;15.43;11.00;;;;;;;;;;5065053;28;20209;-94
2023/03/03 02:49:04;;;;;;;15.70;10.83;;;;;;;;;;5055699;28;20696;-94
2023/03/03 02:51:31;;;;;;;15.33;10.63;;;;;;;;;;5048219;28;20214;-94
2023/03/03 02:53:58;;;;;;;19.57;11.37;;;;;;;;;;5036890;28;20233;-94
2023/03/03 02:56:25;;;;;;;15.97;10.97;;;;;;;;;;5037832;28;20206;-94
2023/03/03 02:58:52;;;;;;;17.60;10.80;;;;;;;;;;5058537;28;20232;-94
2023/03/03 03:01:21;;;;;;;16.73;11.17;;;;;;;;;;5072881;28;20641;-93
2023/03/03 03:03:48;;;;;;;18.40;10.77;;;;;;;;;;5067052;28;20250;-94
2023/03/03 03:06:15;;;;;;;16.50;10.33;;;;;;;;;;5055616;28;20210;-94
2023/03/03 03:08:43;;;;;;;18.67;9.00;;;;;;;;;;5045506;28;20224;-94
2023/03/03 03:11:10;;;;;;;15.53;11.13;;;;;;;;;;5035272;28;20291;-95
2023/03/03 03:13:37;;;;;;;16.30;10.30;;;;;;;;;;5034378;28;20242;-94
2023/03/03 03:16:04;;;;;;;15.90;10.43;;;;;;;;;;5034560;28;20227;-95
2023/03/03 03:18:33;;;;;;;14.20;9.83;;;;;;;;;;5042702;28;20647;-94
2023/03/03 03:21:06;;;;;;;14.67;11.00;;;;;;;;;;5054440;28;20203;-94
2023/03/03 03:23:33;;;;;;;15.70;10.30;;;;;;;;;;5053833;28;20287;-94
2023/03/03 03:26:00;;;;;;;16.03;10.50;;;;;;;;;;5054983;28;20209;-94
2023/03/03 03:28:27;;;;;;;15.33;10.10;;;;;;;;;;5054036;28;20227;-94
2023/03/03 03:30:54;;;;;;;17.73;11.27;;;;;;;;;;5053923;28;20291;-94
2023/03/03 03:33:21;;;;;;;14.67;10.17;;;;;;;;;;5053774;28;20253;-95
2023/03/03 03:35:50;;;;;;;14.83;9.77;;;;;;;;;;5055281;28;20211;-94
2023/03/03 03:38:17;;;;;;;16.43;10.73;;;;;;;;;;5049183;28;20233;-94
2023/03/03 03:40:44;;;;;;;17.40;11.10;;;;;;;;;;5034877;28;20226;-94
2023/03/03 03:43:11;;;;;;;12.93;9.23;;;;;;;;;;5033734;28;20243;-95
2023/03/03 03:45:39;;;;;;;14.63;9.97;;;;;;;;;;5034487;28;20568;-94
2023/03/03 03:48:06;;;;;;;16.17;10.03;;;;;;;;;;5040771;28;20232;-94
2023/03/03 03:50:33;;;;;;;22.50;10.97;;;;;;;;;;5054220;28;20309;-86
2023/03/03 03:53:02;;;;;;;15.90;9.57;;;;;;;;;;5052639;28;20238;-86
2023/03/03 03:55:29;;;;;;;18.30;11.03;;;;;;;;;;5053040;28;20216;-87
2023/03/03 03:57:57;;;;;;;16.70;10.20;;;;;;;;;;5052397;28;20231;-86
2023/03/03 04:00:24;;;;;;;14.30;9.47;;;;;;;;;;5056310;28;20858;-86
2023/03/03 04:02:51;;;;;;;13.37;10.47;;;;;;;;;;5056738;28;20243;-86
2023/03/03 04:05:18;;;;;;;16.87;11.17;;;;;;;;;;5056918;28;20207;-86
2023/03/03 04:07:46;;;;;;;17.43;10.30;;;;;;;;;;5053583;28;20234;-87
2023/03/03 04:10:14;;;;;;;13.53;9.43;;;;;;;;;;5036624;28;20251;-86
2023/03/03 04:12:41;;;;;;;16.87;10.67;;;;;;;;;;5035908;28;20248;-87
2023/03/03 04:15:09;;;;;;;14.00;9.93;;;;;;;;;;5037186;28;20210;-86
2023/03/03 04:17:36;;;;;;;15.20;9.67;;;;;;;;;;5040741;28;20239;-87
2023/03/03 04:20:03;;;;;;;14.93;9.73;;;;;;;;;;5057200;28;20210;-85
2023/03/03 04:22:32;;;;;;;16.63;10.37;;;;;;;;;;5056495;28;20225;-87
2023/03/03 04:25:03;;;;;;;15.00;10.10;;;;;;;;;;5056975;28;20217;-85
2023/03/03 04:27:32;;;;;;;16.07;10.43;;;;;;;;;;5055250;28;20263;-87
2023/03/03 04:29:59;;;;;;;14.40;9.83;;;;;;;;;;5056888;28;20225;-86
2023/03/03 04:32:26;;;;;;;13.83;10.50;;;;;;;;;;5056323;28;20231;-86
2023/03/03 04:34:53;;;;;;;15.63;11.00;;;;;;;;;;5043610;28;20222;-86
2023/03/03 04:37:21;;;;;;;18.27;11.13;;;;;;;;;;5037868;28;20200;-87
2023/03/03 04:39:49;;;;;;;16.23;9.50;;;;;;;;;;5056544;28;20206;-86
2023/03/03 04:42:16;;;;;;;14.47;8.97;;;;;;;;;;5056503;28;20223;-85
2023/03/03 04:44:44;;;;;;;14.70;9.63;;;;;;;;;;5055806;28;20609;-85
2023/03/03 04:47:11;;;;;;;19.10;9.83;;;;;;;;;;5056148;28;20211;-88
2023/03/03 04:49:38;;;;;;;16.70;10.70;;;;;;;;;;5054820;28;20606;-86
2023/03/03 04:52:06;;;;;;;13.67;9.97;;;;;;;;;;5055569;28;20230;-86
2023/03/03 04:54:33;;;;;;;10.37;8.33;;;;;;;;;;5055056;28;20233;-86
2023/03/03 04:57:00;;;;;;;17.50;10.13;;;;;;;;;;5043742;28;20291;-85
2023/03/03 04:59:27;;;;;;;15.00;9.53;;;;;;;;;;5042840;28;20745;-86
2023/03/03 05:01:55;;;;;;;14.17;9.47;;;;;;;;;;5055022;28;20555;-86
2023/03/03 05:04:22;;;;;;;16.27;11.30;;;;;;;;;;5054955;28;20603;-86
2023/03/03 05:06:49;;;;;;;15.13;10.30;;;;;;;;;;5054903;28;20206;-86
2023/03/03 05:09:18;;;;;;;17.07;9.67;;;;;;;;;;5047975;28;20289;-86
2023/03/03 05:11:45;;;;;;;13.97;9.10;;;;;;;;;;5045322;28;20245;-86
2023/03/03 05:14:12;;;;;;;17.87;10.40;;;;;;;;;;5054035;28;20234;-86
2023/03/03 05:16:39;;;;;;;14.57;9.17;;;;;;;;;;5052494;28;20210;-86
2023/03/03 05:19:08;;;;;;;17.70;9.30;;;;;;;;;;5052797;28;20245;-85
2023/03/03 05:21:35;;;;;;;14.83;9.60;;;;;;;;;;5037912;28;20206;-86
2023/03/03 05:24:02;;;;;;;17.47;10.23;;;;;;;;;;5045262;28;20237;-85
2023/03/03 05:26:29;;;;;;;13.40;9.17;;;;;;;;;;5054548;28;20554;-85
2023/03/03 05:28:56;;;;;;;17.03;9.97;;;;;;;;;;5051894;28;20616;-86
2023/03/03 05:31:25;;;;;;;13.10;9.53;;;;;;;;;;5034492;28;20710;-87
2023/03/03 05:33:53;;;;;;;18.23;12.27;;;;;;;;;;5034315;28;20241;-85
2023/03/03 05:36:21;;;;;;;14.73;10.13;;;;;;;;;;5034928;28;20214;-86
2023/03/03 05:38:48;;;;;;;15.17;9.77;;;;;;;;;;5034629;28;20231;-86
2023/03/03 05:41:15;;;;;;;13.10;9.73;;;;;;;;;;5034513;28;20207;-87
2023/03/03 05:43:43;;;;;;;15.43;10.43;;;;;;;;;;5034173;28;20246;-87
2023/03/03 05:46:10;;;;;;;13.03;9.10;;;;;;;;;;5034456;28;20202;-86
2023/03/03 05:48:37;;;;;;;14.60;10.20;;;;;;;;;;5033757;28;20234;-86
2023/03/03 05:51:05;;;;;;;13.70;10.17;;;;;;;;;;5053368;28;20229;-86
2023/03/03 05:53:33;;;;;;;17.73;10.17;;;;;;;;;;5053679;28;20605;-87
2023/03/03 05:56:00;;;;;;;15.83;10.07;;;;;;;;;;5054445;28;20677;-87
2023/03/03 05:58:27;;;;;;;16.73;10.60;;;;;;;;;;5053770;28;20233;-86
2023/03/03 06:00:54;;;;;;;13.53;10.10;;;;;;;;;;5036319;28;20686;-87
2023/03/03 06:03:22;;;;;;;13.30;9.70;;;;;;;;;;5033912;28;20249;-86
2023/03/03 06:05:49;;;;;;;14.17;9.37;;;;;;;;;;5041041;28;20194;-86
2023/03/03 06:08:16;;;;;;;14.97;10.23;;;;;;;;;;5035069;28;20238;-85
2023/03/03 06:10:45;;;;;;;14.20;9.17;;;;;;;;;;5039885;28;20225;-84
2023/03/03 06:13:12;;;;;;;16.00;10.93;;;;;;;;;;5054153;28;20245;-85
2023/03/03 06:15:39;;;;;;;12.60;9.30;;;;;;;;;;5053413;28;20236;-86
2023/03/03 06:18:07;;;;;;;14.37;9.73;;;;;;;;;;5052875;28;20244;-84
2023/03/03 06:20:34;;;;;;;16.37;9.37;;;;;;;;;;5053893;28;20336;-86
2023/03/03 06:23:01;;;;;;;19.30;10.07;;;;;;;;;;5042369;28;20230;-86
2023/03/03 06:25:28;;;;;;;15.03;9.97;;;;;;;;;;5039771;28;20204;-86
2023/03/03 06:27:57;;;;;;;15.83;9.80;;;;;;;;;;5057668;28;20244;-85
2023/03/03 06:30:27;;;;;;;16.90;10.03;;;;;;;;;;5043897;28;20249;-84
2023/03/03 06:32:54;;;;;;;16.63;10.67;;;;;;;;;;5054236;28;20230;-84
2023/03/03 06:35:21;;;;;;;16.33;11.00;;;;;;;;;;5056238;28;20281;-85
2023/03/03 06:37:49;;;;;;;17.97;10.93;;;;;;;;;;5055283;28;20233;-85
2023/03/03 06:40:16;;;;;;;19.97;11.93;;;;;;;;;;5043315;28;20241;-86
2023/03/03 06:42:43;;;;;;;17.83;12.43;;;;;;;;;;5035082;28;20238;-85
2023/03/03 06:45:12;;;;;;;19.67;10.53;;;;;;;;;;5036083;28;20202;-85
2023/03/03 06:47:40;;;;;;;17.87;11.63;;;;;;;;;;5035160;28;20221;-85
2023/03/03 06:50:07;;;;;;;17.90;10.40;;;;;;;;;;5035446;28;20230;-85
2023/03/03 06:52:34;;;;;;;20.03;12.93;;;;;;;;;;5034428;28;20757;-86
2023/03/03 06:55:02;;;;;;;17.63;11.57;;;;;;;;;;5038967;28;20653;-85
2023/03/03 06:57:31;;;;;;;19.33;11.67;;;;;;;;;;5055040;28;20200;-85
2023/03/03 07:00:00;;;;;;;18.20;11.87;;;;;;;;;;5055374;28;20208;-84
2023/03/03 07:02:29;;;;;;;20.93;12.83;;;;;;;;;;5054161;28;20248;-86
2023/03/03 07:04:57;;;;;;;19.00;12.27;;;;;;;;;;5052426;28;20210;-84
2023/03/03 07:07:25;;;;;;;19.87;11.70;;;;;;;;;;5035468;28;20686;-85
2023/03/03 07:09:53;;;;;;;18.53;12.20;;;;;;;;;;5036351;28;20226;-85
2023/03/03 07:12:21;;;;;;;21.67;12.67;;;;;;;;;;5035475;28;20238;-86
2023/03/03 07:14:54;;;;;;;20.97;12.17;;;;;;;;;;5049980;28;20253;-85
2023/03/03 07:17:24;;;;;;;23.50;12.67;;;;;;;;;;5049560;28;20253;-87
2023/03/03 07:19:52;;;;;;;13.97;10.40;;;;;;;;;;5035836;28;20211;-83
2023/03/03 07:22:20;;;;;;;19.60;12.20;;;;;;;;;;5035271;28;20230;-84
2023/03/03 07:24:49;;;;;;;23.37;13.23;;;;;;;;;;5034856;28;20222;-83
2023/03/03 07:27:19;;;;;;;26.57;15.17;;;;;;;;;;5035707;28;20202;-84
2023/03/03 07:29:47;;;;;;;21.47;14.50;;;;;;;;;;5035608;28;20702;-85
2023/03/03 07:32:22;;;;;;;20.57;13.30;;;;;;;;;;5042403;28;20218;-85
2023/03/03 07:34:50;;;;;;;29.53;16.03;;;;;;;;;;5046665;28;20234;-87
2023/03/03 07:37:23;;;;;;;30.90;16.90;;;;;;;;;;5039655;28;20207;-88
2023/03/03 07:39:51;;;;;;;31.13;17.93;;;;;;;;;;5045661;28;20586;-88
2023/03/03 07:42:22;;;;;;;35.30;18.50;;;;;;;;;;5047008;28;20592;-88
2023/03/03 07:44:51;;;;;;;40.47;19.97;;;;;;;;;;5057289;28;20222;-88
2023/03/03 07:47:23;;;;;;;50.43;24.87;;;;;;;;;;5039027;28;20198;-84
2023/03/03 07:49:51;;;;;;;56.40;27.07;;;;;;;;;;5032811;28;20230;-90
2023/03/03 07:52:24;;;;;;;53.87;28.27;;;;;;;;;;5032791;28;20219;-88
2023/03/03 07:54:51;;;;;;;69.87;30.83;;;;;;;;;;5032810;28;20224;-89
2023/03/03 07:57:20;;;;;;;63.63;30.93;;;;;;;;;;5032763;28;20627;-88
2023/03/03 07:59:48;;;;;;;77.70;31.40;;;;;;;;;;5044535;28;20235;-87
2023/03/03 08:02:29;;;;;;;73.73;30.67;;;;;;;;;;5031291;28;20711;-86
2023/03/03 08:04:56;;;;;;;72.57;31.70;;;;;;;;;;5030825;28;20226;-85
2023/03/03 08:07:25;;;;;;;48.67;23.47;;;;;;;;;;5037876;28;20202;-85
2023/03/03 08:09:52;;;;;;;63.60;23.97;;;;;;;;;;5051127;28;20217;-86
2023/03/03 08:12:30;;;;;;;48.53;24.40;;;;;;;;;;5050185;28;20224;-87
2023/03/03 08:14:58;;;;;;;61.50;28.67;;;;;;;;;;5041948;28;20211;-84
2023/03/03 08:17:28;;;;;;;51.20;24.63;;;;;;;;;;5033647;28;20205;-86
2023/03/03 08:19:56;;;;;;;62.77;29.53;;;;;;;;;;5043950;28;20208;-85
2023/03/03 08:22:31;;;;;;;59.80;28.10;;;;;;;;;;5035403;28;20221;-85
2023/03/03 08:24:58;;;;;;;61.57;28.40;;;;;;;;;;5030943;28;20557;-85
2023/03/03 08:27:25;;;;;;;67.57;30.30;;;;;;;;;;5030932;28;20211;-88
2023/03/03 08:29:52;;;;;;;72.87;31.93;;;;;;;;;;5033953;28;20612;-88
2023/03/03 08:32:19;;;;;;;66.20;29.07;;;;;;;;;;5035723;28;20312;-88
2023/03/03 08:34:46;;;;;;;76.03;31.63;;;;;;;;;;5048895;28;20709;-86
2023/03/03 08:37:13;;;;;;;65.80;29.90;;;;;;;;;;5048852;28;20198;-87
2023/03/03 08:39:43;;;;;;;70.60;29.50;;;;;;;;;;5045831;28;20232;-87
2023/03/03 08:42:10;;;;;;;55.93;27.97;;;;;;;;;;5045915;28;20227;-87
2023/03/03 08:44:37;;;;;;;54.80;27.03;;;;;;;;;;5049728;28;20239;-84
2023/03/03 08:47:04;;;;;;;66.83;31.93;;;;;;;;;;5053737;28;20218;-84
2023/03/03 08:49:31;;;;;;;67.17;30.87;;;;;;;;;;5033659;28;20241;-84
2023/03/03 08:51:59;;;;;;;75.47;32.77;;;;;;;;;;5033057;28;20575;-84
2023/03/03 08:54:26;;;;;;;67.57;31.57;;;;;;;;;;5033545;28;20253;-83
2023/03/03 08:56:55;;;;;;;64.03;30.07;;;;;;;;;;5033494;28;20237;-82
2023/03/03 08:59:22;;;;;;;70.33;31.47;;;;;;;;;;5042749;28;20233;-82
2023/03/03 09:01:49;;;;;;;69.10;30.80;;;;;;;;;;5053222;28;20206;-82
2023/03/03 09:04:16;;;;;;;63.03;31.10;;;;;;;;;;5052907;28;20240;-83
2023/03/03 09:06:43;;;;;;;67.23;32.37;;;;;;;;;;5053495;28;20218;-83
2023/03/03 09:09:10;;;;;;;60.77;30.67;;;;;;;;;;5052368;28;20689;-82
2023/03/03 09:11:37;;;;;;;55.70;29.47;;;;;;;;;;5053249;28;20606;-83
2023/03/03 09:14:11;;;;;;;53.57;28.47;;;;;;;;;;5052686;28;20240;-83
2023/03/03 09:16:39;;;;;;;55.03;28.87;;;;;;;;;;5053247;28;20209;-82
2023/03/03 09:19:17;;;;;;;51.67;27.37;;;;;;;;;;5052526;28;20247;-82
2023/03/03 09:21:44;;;;;;;49.73;27.67;;;;;;;;;;5052968;28;20210;-82
2023/03/03 09:24:20;;;;;;;46.07;26.90;;;;;;;;;;5052794;28;20795;-81
2023/03/03 09:26:47;;;;;;;47.70;25.53;;;;;;;;;;5052510;28;20712;-83
2023/03/03 09:29:20;;;;;;;45.97;24.40;;;;;;;;;;5041687;28;20714;-83
2023/03/03 09:31:50;;;;;;;43.10;22.63;;;;;;;;;;5052591;28;20713;-83
2023/03/03 09:34:21;;;;;;;47.43;24.07;;;;;;;;;;5045508;28;20313;-81
2023/03/03 09:36:48;;;;;;;44.90;23.70;;;;;;;;;;5050067;28;20203;-82
2023/03/03 09:39:18;;;;;;;47.33;24.03;;;;;;;;;;5047351;28;20715;-82
2023/03/03 09:41:52;;;;;;;42.57;24.00;;;;;;;;;;5032343;28;20697;-82
2023/03/03 09:44:41;;;;;;;38.57;22.30;;;;;;;;;;5032162;28;20269;-80
2023/03/03 09:47:15;;;;;;;41.97;23.60;;;;;;;;;;5033138;28;20211;-80
2023/03/03 09:49:48;;;;;;;37.80;20.57;;;;;;;;;;5043128;28;20651;-80
2023/03/03 09:52:22;;;;;;;40.20;22.70;;;;;;;;;;5049020;28;20230;-85
2023/03/03 09:54:54;;;;;;;40.13;20.17;;;;;;;;;;5041192;28;20226;-82
2023/03/03 09:57:24;;;;;;;38.07;22.03;;;;;;;;;;5049031;28;20202;-83
2023/03/03 10:00:07;;;;;;;39.00;21.43;;;;;;;;;;5050693;28;20205;-82
2023/03/03 10:02:44;;;;;;;41.90;23.40;;;;;;;;;;5043718;28;20253;-82
2023/03/03 10:05:17;;;;;;;32.13;19.43;;;;;;;;;;5032066;28;20210;-82
2023/03/03 10:07:49;;;;;;;38.67;21.13;;;;;;;;;;5031902;28;20300;-82
2023/03/03 10:10:27;;;;;;;37.87;20.97;;;;;;;;;;5042271;28;20666;-82
2023/03/03 10:13:02;;;;;;;37.30;21.60;;;;;;;;;;5051334;28;20241;-82
2023/03/03 10:15:36;;;;;;;34.03;19.13;;;;;;;;;;5038001;28;20214;-87
2023/03/03 10:18:10;;;;;;;40.03;21.10;;;;;;;;;;5033286;28;20241;-86
2023/03/03 10:20:41;;;;;;;33.90;19.20;;;;;;;;;;5045520;28;20199;-85
2023/03/03 10:23:19;;;;;;;33.33;20.23;;;;;;;;;;5050888;28;20752;-85
2023/03/03 10:25:50;;;;;;;39.63;20.70;;;;;;;;;;5044657;28;20208;-90
2023/03/03 10:28:29;;;;;;;32.60;17.67;;;;;;;;;;5051809;28;20232;-91
2023/03/03 10:31:04;;;;;;;32.77;19.33;;;;;;;;;;5040042;28;20227;-90
2023/03/03 10:33:38;;;;;;;32.00;19.27;;;;;;;;;;5053234;28;20697;-89
2023/03/03 10:36:13;;;;;;;29.67;17.83;;;;;;;;;;5053549;28;20216;-91
2023/03/03 10:38:45;;;;;;;33.40;18.47;;;;;;;;;;5047306;28;20228;-90
2023/03/03 10:41:23;;;;;;;32.23;19.43;;;;;;;;;;5045354;28;20201;-90
2023/03/03 10:44:15;;;;;;;33.67;17.53;;;;;;;;;;5034600;28;20242;-91
2023/03/03 10:46:53;;;;;;;29.50;17.90;;;;;;;;;;5042906;28;20198;-90
2023/03/03 10:49:28;;;;;;;28.53;17.67;;;;;;;;;;5039462;28;20222;-91
2023/03/03 10:52:14;;;;;;;27.63;16.87;;;;;;;;;;5033097;28;20233;-91
2023/03/03 10:54:52;;;;;;;30.13;17.77;;;;;;;;;;5032667;28;20230;-91
2023/03/03 10:57:24;;;;;;;30.97;17.50;;;;;;;;;;5032962;28;20210;-90
2023/03/03 11:00:04;;;;;;;26.10;16.60;;;;;;;;;;5034844;28;20223;-91
2023/03/03 11:02:35;;;;;;;29.40;18.27;;;;;;;;;;5053547;28;20226;-90
2023/03/03 11:05:15;;;;;;;27.20;16.43;;;;;;;;;;5052746;28;20202;-91
2023/03/03 11:07:45;;;;;;;26.07;16.40;;;;;;;;;;5052217;28;20230;-90
2023/03/03 11:10:19;;;;;;;25.50;16.03;;;;;;;;;;5048780;28;20206;-90
2023/03/03 11:12:52;;;;;;;25.80;15.93;;;;;;;;;;5031968;28;20238;-91
2023/03/03 11:15:27;;;;;;;22.70;14.83;;;;;;;;;;5032500;28;20210;-90
2023/03/03 11:18:03;;;;;;;24.13;15.13;;;;;;;;;;5032095;28;20752;-90
2023/03/03 11:20:36;;;;;;;25.17;15.40;;;;;;;;;;5032181;28;20210;-89
2023/03/03 11:23:12;;;;;;;20.97;14.80;;;;;;;;;;5031687;28;20253;-90
2023/03/03 11:25:41;;;;;;;23.30;13.87;;;;;;;;;;5033871;28;20213;-89
2023/03/03 11:28:25;;;;;;;26.13;15.23;;;;;;;;;;5032167;28;20245;-90
2023/03/03 11:30:57;;;;;;;23.80;15.30;;;;;;;;;;5032207;28;20561;-90
2023/03/03 11:33:28;;;;;;;24.17;15.43;;;;;;;;;;5032952;28;20243;-90
2023/03/03 11:36:06;;;;;;;25.23;15.33;;;;;;;;;;5042447;28;20199;-90
2023/03/03 11:38:43;;;;;;;20.37;14.10;;;;;;;;;;5052022;28;20316;-91
2023/03/03 11:41:14;;;;;;;24.07;15.33;;;;;;;;;;5042851;28;20237;-91
2023/03/03 11:43:43;;;;;;;21.53;14.10;;;;;;;;;;5031850;28;20250;-91
2023/03/03 11:46:14;;;;;;;24.63;14.53;;;;;;;;;;5032758;28;20217;-90
2023/03/03 11:48:46;;;;;;;21.70;14.00;;;;;;;;;;5031812;28;20235;-89
2023/03/03 11:51:15;;;;;;;21.63;13.23;;;;;;;;;;5032030;28;20211;-89
2023/03/03 11:53:51;;;;;;;25.00;14.40;;;;;;;;;;5031773;28;20252;-90
2023/03/03 11:56:21;;;;;;;21.10;13.30;;;;;;;;;;5034731;28;20207;-91
2023/03/03 11:58:51;;;;;;;23.60;14.47;;;;;;;;;;5042329;28;20242;-91
2023/03/03 12:01:21;;;;;;;20.60;13.80;;;;;;;;;;5041074;28;20225;-88
2023/03/03 12:03:51;;;;;;;20.47;14.00;;;;;;;;;;5050898;28;20252;-90
2023/03/03 12:06:22;;;;;;;20.93;13.67;;;;;;;;;;5047856;28;20206;-89
2023/03/03 12:09:00;;;;;;;20.43;13.57;;;;;;;;;;5034335;28;20233;-89
2023/03/03 12:11:28;;;;;;;21.97;14.07;;;;;;;;;;5033164;28;20230;-88
2023/03/03 12:13:58;;;;;;;19.53;14.13;;;;;;;;;;5043923;28;20242;-89
2023/03/03 12:16:33;;;;;;;21.47;14.37;;;;;;;;;;5042979;28;20603;-88
2023/03/03 12:19:15;;;;;;;18.03;12.63;;;;;;;;;;5040344;28;20733;-87
2023/03/03 12:21:55;;;;;;;20.10;14.33;;;;;;;;;;5042819;28;20194;-86
2023/03/03 12:24:30;;;;;;;19.63;13.50;;;;;;;;;;5048574;28;20241;-88
2023/03/03 12:27:03;;;;;;;19.43;14.23;;;;;;;;;;5046245;28;20202;-88
2023/03/03 12:29:35;;;;;;;21.07;14.50;;;;;;;;;;5043898;28;20235;-89
2023/03/03 12:32:11;;;;;;;21.33;14.03;;;;;;;;;;5050565;28;20232;-91
2023/03/03 12:34:42;;;;;;;19.70;13.43;;;;;;;;;;5045706;28;20284;-87
2023/03/03 12:37:16;;;;;;;22.10;14.47;;;;;;;;;;5044761;28;20214;-89
2023/03/03 12:39:47;;;;;;;21.87;14.33;;;;;;;;;;5043392;28;20226;-90
2023/03/03 12:42:21;;;;;;;18.47;13.07;;;;;;;;;;5050101;28;20225;-90
2023/03/03 12:44:50;;;;;;;19.93;13.83;;;;;;;;;;5050499;28;20232;-89
2023/03/03 12:47:22;;;;;;;19.57;13.87;;;;;;;;;;5043070;28;20202;-89
2023/03/03 12:49:56;;;;;;;17.47;13.10;;;;;;;;;;5038255;28;20226;-89
2023/03/03 12:52:30;;;;;;;22.33;13.23;;;;;;;;;;5047008;28;20254;-90
2023/03/03 12:55:02;;;;;;;18.50;12.57;;;;;;;;;;5047809;28;20588;-89
2023/03/03 12:57:32;;;;;;;17.13;12.20;;;;;;;;;;5044267;28;20574;-87
2023/03/03 13:00:13;;;;;;;16.60;12.00;;;;;;;;;;5039822;28;20191;-91
2023/03/03 13:02:44;;;;;;;18.27;12.53;;;;;;;;;;5055556;28;20686;-89
2023/03/03 13:05:18;;;;;;;16.57;12.47;;;;;;;;;;5049902;28;20206;-90
2023/03/03 13:07:50;;;;;;;18.37;13.03;;;;;;;;;;5053851;28;20416;-89
2023/03/03 13:10:20;;;;;;;17.37;11.23;;;;;;;;;;5036245;28;20268;-89
2023/03/03 13:12:49;;;;;;;18.67;12.40;;;;;;;;;;5039521;28;20242;-88
2023/03/03 13:15:21;;;;;;;17.20;12.60;;;;;;;;;;5038638;28;20206;-89
2023/03/03 13:18:06;;;;;;;18.07;11.80;;;;;;;;;;5042971;28;20226;-89
2023/03/03 13:20:39;;;;;;;14.13;10.37;;;;;;;;;;5038116;28;20202;-88
2023/03/03 13:23:10;;;;;;;14.47;10.83;;;;;;;;;;5052788;28;20242;-90
2023/03/03 13:25:48;;;;;;;18.07;11.83;;;;;;;;;;5056402;28;20183;-89
2023/03/03 13:28:22;;;;;;;15.30;10.87;;;;;;;;;;5057254;28;20629;-90
2023/03/03 13:30:50;;;;;;;18.70;11.20;;;;;;;;;;5054321;28;20256;-89
2023/03/03 13:33:20;;;;;;;17.63;11.50;;;;;;;;;;5054888;28;20673;-90
2023/03/03 13:35:50;;;;;;;16.87;10.60;;;;;;;;;;5049160;28;20214;-90
2023/03/03 13:38:21;;;;;;;14.05;10.55;;;;;;;;;;5035230;28;20231;-89
2023/03/03 13:40:51;;;;;;;15.30;10.80;;;;;;;;;;5034606;28;20206;-89
2023/03/03 13:43:19;;;;;;;13.98;10.13;;;;;;;;;;5038005;28;20231;-88
2023/03/03 13:45:51;;;;;;;14.95;10.27;;;;;;;;;;5051824;28;20198;-88
2023/03/03 13:48:28;;;;;;;14.65;9.90;;;;;;;;;;5054639;28;20238;-88
2023/03/03 13:50:57;;;;;;;13.48;10.18;;;;;;;;;;5051500;28;20198;-88
2023/03/03 13:53:35;;;;;;;13.43;10.00;;;;;;;;;;5056520;28;20242;-89
2023/03/03 13:56:09;;;;;;;13.77;10.65;;;;;;;;;;5046696;28;20203;-88
2023/03/03 13:58:41;;;;;;;15.07;11.20;;;;;;;;;;5053207;28;20229;-87
2023/03/03 14:01:13;;;;;;;17.63;11.10;;;;;;;;;;5042396;28;20555;-88
2023/03/03 14:03:54;;;;;;;14.65;10.15;;;;;;;;;;5047399;28;20606;-87
2023/03/03 14:06:22;;;;;;;14.25;9.60;;;;;;;;;;5044781;28;20217;-89
2023/03/03 14:08:59;;;;;;;13.20;9.48;;;;;;;;;;5059010;28;20269;-90
2023/03/03 14:11:29;;;;;;;12.57;9.35;;;;;;;;;;5062766;28;20170;-88
2023/03/03 14:14:05;;;;;;;12.82;9.68;;;;;;;;;;5056827;28;20233;-89
2023/03/03 14:16:39;;;;;;;15.18;10.20;;;;;;;;;;5060391;28;20312;-90
2023/03/03 14:19:11;;;;;;;15.43;10.65;;;;;;;;;;5068281;28;20229;-89
2023/03/03 14:21:41;;;;;;;13.40;9.80;;;;;;;;;;5066387;28;20178;-90
2023/03/03 14:24:14;;;;;;;14.38;9.05;;;;;;;;;;5067030;28;20318;-91
2023/03/03 14:26:46;;;;;;;14.57;10.27;;;;;;;;;;5065865;28;20203;-91
2023/03/03 14:29:29;;;;;;;13.68;9.55;;;;;;;;;;5053023;28;20288;-91
2023/03/03 14:31:57;;;;;;;12.20;8.90;;;;;;;;;;5052154;28;20222;-91
2023/03/03 14:34:31;;;;;;;12.73;9.02;;;;;;;;;;5046952;28;20231;-91